Terminal Aerodrome Forecast
Issued by NWS Melbourne, FL

Current Version | Previous Version | Text Only | Print | Product List | Glossary On
Versions: 1 2 3 4 5 6 7 8 9 10 11 12
619
FTUS42 KMLB 311138
TAFMLB
TAF
KMLB 311138Z 3112/0112 00000KT P6SM SKC
     FM311400 27006KT P6SM SCT035
     FM311800 09009KT P6SM VCTS SCT035CB BKN250
     FM010000 14005KT P6SM FEW035 SCT100 BKN250=

USA.gov is the U.S. government's official web portal to all federal, state and local government web resources and services.